Terminal Aerodrome Forecast
Issued by NWS Twin Cities, MN

Home | Current Version | Previous Version | Graphics & Text | Print | Product List | Glossary On
Versions: 1 2 3 4 5 6 7 8 9 10 11 12 13 14 15 16 17 18 19 20
000
FTUS43 KMPX 241120
TAFSTC
TAF
KSTC 241120Z 2412/2512 01006KT 4SM BR BKN005 OVC025
      TEMPO 2412/2415 SCT005 OVC025
     FM241700 02010KT P6SM OVC013
     FM242200 03009KT P6SM BKN020=

USA.gov is the U.S. government's official web portal to all federal, state and local government web resources and services.